sensor_id;sensor_type;location;lat;lon;timestamp;temperature;humidity
13464;DHT22;6804;48.774;9.174;2023-02-21T00:00:55;8.60;99.90
13464;DHT22;6804;48.774;9.174;2023-02-21T00:03:39;8.60;99.90
13464;DHT22;6804;48.774;9.174;2023-02-21T00:06:24;8.70;99.90
13464;DHT22;6804;48.774;9.174;2023-02-21T00:09:10;8.70;99.90
13464;DHT22;6804;48.774;9.174;2023-02-21T00:11:55;8.60;99.90
13464;DHT22;6804;48.774;9.174;2023-02-21T00:14:39;8.50;99.90
13464;DHT22;6804;48.774;9.174;2023-02-21T00:17:24;8.40;99.90
13464;DHT22;6804;48.774;9.174;2023-02-21T00:20:09;8.20;99.90
13464;DHT22;6804;48.774;9.174;2023-02-21T00:22:53;8.20;99.90
13464;DHT22;6804;48.774;9.174;2023-02-21T00:25:39;8.10;99.90
13464;DHT22;6804;48.774;9.174;2023-02-21T00:28:23;8.10;99.90
13464;DHT22;6804;48.774;9.174;2023-02-21T00:31:11;8.10;99.90
13464;DHT22;6804;48.774;9.174;2023-02-21T00:33:55;8.00;99.90
13464;DHT22;6804;48.774;9.174;2023-02-21T00:36:39;8.00;99.90
13464;DHT22;6804;48.774;9.174;2023-02-21T00:39:24;8.00;99.90
13464;DHT22;6804;48.774;9.174;2023-02-21T00:42:10;8.10;99.90
13464;DHT22;6804;48.774;9.174;2023-02-21T00:44:54;8.10;99.90
13464;DHT22;6804;48.774;9.174;2023-02-21T00:47:42;8.10;99.90
13464;DHT22;6804;48.774;9.174;2023-02-21T00:50:27;8.10;99.90
13464;DHT22;6804;48.774;9.174;2023-02-21T00:53:11;8.00;99.90
13464;DHT22;6804;48.774;9.174;2023-02-21T00:55:56;7.90;99.90
13464;DHT22;6804;48.774;9.174;2023-02-21T00:58:41;7.90;99.90
13464;DHT22;6804;48.774;9.174;2023-02-21T01:01:26;7.80;99.90
13464;DHT22;6804;48.774;9.174;2023-02-21T01:04:10;7.80;99.90
13464;DHT22;6804;48.774;9.174;2023-02-21T01:06:55;7.50;99.90
13464;DHT22;6804;48.774;9.174;2023-02-21T01:09:39;7.30;99.90
13464;DHT22;6804;48.774;9.174;2023-02-21T01:12:24;7.20;99.90
13464;DHT22;6804;48.774;9.174;2023-02-21T01:15:13;7.20;99.90
13464;DHT22;6804;48.774;9.174;2023-02-21T01:18:00;7.30;99.90
13464;DHT22;6804;48.774;9.174;2023-02-21T01:20:45;7.40;99.90
13464;DHT22;6804;48.774;9.174;2023-02-21T01:23:33;7.50;99.90
13464;DHT22;6804;48.774;9.174;2023-02-21T01:26:17;7.60;99.90
13464;DHT22;6804;48.774;9.174;2023-02-21T01:29:02;7.70;99.90
13464;DHT22;6804;48.774;9.174;2023-02-21T01:31:49;7.80;99.90
13464;DHT22;6804;48.774;9.174;2023-02-21T01:34:34;7.80;99.90
13464;DHT22;6804;48.774;9.174;2023-02-21T01:37:21;7.70;99.90
13464;DHT22;6804;48.774;9.174;2023-02-21T01:40:07;7.70;99.90
13464;DHT22;6804;48.774;9.174;2023-02-21T01:42:52;7.70;99.90
13464;DHT22;6804;48.774;9.174;2023-02-21T01:45:46;7.60;99.90
13464;DHT22;6804;48.774;9.174;2023-02-21T01:48:33;7.70;99.90
13464;DHT22;6804;48.774;9.174;2023-02-21T01:51:20;7.70;99.90
13464;DHT22;6804;48.774;9.174;2023-02-21T01:54:06;7.80;99.90
13464;DHT22;6804;48.774;9.174;2023-02-21T01:56:53;7.80;99.90
13464;DHT22;6804;48.774;9.174;2023-02-21T01:59:39;7.90;99.90
13464;DHT22;6804;48.774;9.174;2023-02-21T02:02:30;7.90;99.90
13464;DHT22;6804;48.774;9.174;2023-02-21T02:05:17;7.90;99.90
13464;DHT22;6804;48.774;9.174;2023-02-21T02:08:02;7.90;99.90
13464;DHT22;6804;48.774;9.174;2023-02-21T02:10:54;7.90;99.90
13464;DHT22;6804;48.774;9.174;2023-02-21T02:13:57;7.80;99.90
13464;DHT22;6804;48.774;9.174;2023-02-21T02:16:34;7.90;99.90
13464;DHT22;6804;48.774;9.174;2023-02-21T02:19:26;7.80;99.90
13464;DHT22;6804;48.774;9.174;2023-02-21T02:31:42;7.80;99.90
13464;DHT22;6804;48.774;9.174;2023-02-21T02:34:43;7.90;99.90
13464;DHT22;6804;48.774;9.174;2023-02-21T02:37:17;7.90;99.90
13464;DHT22;6804;48.774;9.174;2023-02-21T02:39:56;7.80;99.90
13464;DHT22;6804;48.774;9.174;2023-02-21T02:42:44;7.70;99.90
13464;DHT22;6804;48.774;9.174;2023-02-21T02:45:19;7.40;99.90
13464;DHT22;6804;48.774;9.174;2023-02-21T02:47:51;7.30;99.90
13464;DHT22;6804;48.774;9.174;2023-02-21T02:50:22;7.30;99.90
13464;DHT22;6804;48.774;9.174;2023-02-21T02:52:51;7.40;99.90
13464;DHT22;6804;48.774;9.174;2023-02-21T02:55:31;7.40;99.90
13464;DHT22;6804;48.774;9.174;2023-02-21T02:58:00;7.50;99.90
13464;DHT22;6804;48.774;9.174;2023-02-21T03:00:33;7.40;99.90
13464;DHT22;6804;48.774;9.174;2023-02-21T03:03:14;7.40;99.90
13464;DHT22;6804;48.774;9.174;2023-02-21T03:05:56;7.40;99.90
13464;DHT22;6804;48.774;9.174;2023-02-21T03:08:34;7.40;99.90
13464;DHT22;6804;48.774;9.174;2023-02-21T03:11:10;7.40;99.90
13464;DHT22;6804;48.774;9.174;2023-02-21T03:13:44;7.40;99.90
13464;DHT22;6804;48.774;9.174;2023-02-21T03:16:23;7.30;99.90
13464;DHT22;6804;48.774;9.174;2023-02-21T03:18:55;7.20;99.90
13464;DHT22;6804;48.774;9.174;2023-02-21T03:21:28;7.30;99.90
13464;DHT22;6804;48.774;9.174;2023-02-21T03:23:59;7.30;99.90
13464;DHT22;6804;48.774;9.174;2023-02-21T03:26:28;7.20;99.90
13464;DHT22;6804;48.774;9.174;2023-02-21T03:28:58;7.20;99.90
13464;DHT22;6804;48.774;9.174;2023-02-21T03:31:28;7.20;99.90
13464;DHT22;6804;48.774;9.174;2023-02-21T03:33:56;7.30;99.90
13464;DHT22;6804;48.774;9.174;2023-02-21T03:36:26;7.30;99.90
13464;DHT22;6804;48.774;9.174;2023-02-21T03:38:53;7.20;99.90
13464;DHT22;6804;48.774;9.174;2023-02-21T03:41:21;7.00;99.90
13464;DHT22;6804;48.774;9.174;2023-02-21T03:43:48;7.00;99.90
13464;DHT22;6804;48.774;9.174;2023-02-21T03:46:18;7.10;99.90
13464;DHT22;6804;48.774;9.174;2023-02-21T03:48:48;7.10;99.90
13464;DHT22;6804;48.774;9.174;2023-02-21T03:51:15;7.00;99.90
13464;DHT22;6804;48.774;9.174;2023-02-21T03:53:46;7.00;99.90
13464;DHT22;6804;48.774;9.174;2023-02-21T03:56:16;7.00;99.90
13464;DHT22;6804;48.774;9.174;2023-02-21T03:58:44;7.00;99.90
13464;DHT22;6804;48.774;9.174;2023-02-21T04:01:11;7.00;99.90
13464;DHT22;6804;48.774;9.174;2023-02-21T04:03:38;7.10;99.90
13464;DHT22;6804;48.774;9.174;2023-02-21T04:06:05;7.20;99.90
13464;DHT22;6804;48.774;9.174;2023-02-21T04:08:35;7.20;99.90
13464;DHT22;6804;48.774;9.174;2023-02-21T04:11:04;7.20;99.90
13464;DHT22;6804;48.774;9.174;2023-02-21T04:13:31;7.30;99.90
13464;DHT22;6804;48.774;9.174;2023-02-21T04:15:59;7.40;99.90
13464;DHT22;6804;48.774;9.174;2023-02-21T04:18:26;7.30;99.90
13464;DHT22;6804;48.774;9.174;2023-02-21T04:20:57;7.40;99.90
13464;DHT22;6804;48.774;9.174;2023-02-21T04:23:24;7.40;99.90
13464;DHT22;6804;48.774;9.174;2023-02-21T04:25:52;7.40;99.90
13464;DHT22;6804;48.774;9.174;2023-02-21T04:28:20;7.40;99.90
13464;DHT22;6804;48.774;9.174;2023-02-21T04:30:47;7.40;99.90
13464;DHT22;6804;48.774;9.174;2023-02-21T04:33:15;7.40;99.90
13464;DHT22;6804;48.774;9.174;2023-02-21T04:35:42;7.40;99.90
13464;DHT22;6804;48.774;9.174;2023-02-21T04:38:10;7.40;99.90
13464;DHT22;6804;48.774;9.174;2023-02-21T04:40:40;7.20;99.90
13464;DHT22;6804;48.774;9.174;2023-02-21T04:43:07;7.00;99.90
13464;DHT22;6804;48.774;9.174;2023-02-21T04:45:38;6.90;99.90
13464;DHT22;6804;48.774;9.174;2023-02-21T04:48:05;6.80;99.90
13464;DHT22;6804;48.774;9.174;2023-02-21T04:50:33;6.80;99.90
13464;DHT22;6804;48.774;9.174;2023-02-21T04:53:00;6.70;99.90
13464;DHT22;6804;48.774;9.174;2023-02-21T04:55:27;6.60;99.90
13464;DHT22;6804;48.774;9.174;2023-02-21T04:57:55;6.50;99.90
13464;DHT22;6804;48.774;9.174;2023-02-21T05:00:25;6.50;99.90
13464;DHT22;6804;48.774;9.174;2023-02-21T05:02:53;6.70;99.90
13464;DHT22;6804;48.774;9.174;2023-02-21T05:05:23;6.70;99.90
13464;DHT22;6804;48.774;9.174;2023-02-21T05:07:50;6.70;99.90
13464;DHT22;6804;48.774;9.174;2023-02-21T05:10:18;6.80;99.90
13464;DHT22;6804;48.774;9.174;2023-02-21T05:12:48;6.80;99.90
13464;DHT22;6804;48.774;9.174;2023-02-21T05:15:15;6.80;99.90
13464;DHT22;6804;48.774;9.174;2023-02-21T05:17:43;6.80;99.90
13464;DHT22;6804;48.774;9.174;2023-02-21T05:20:14;6.90;99.90
13464;DHT22;6804;48.774;9.174;2023-02-21T05:22:43;6.90;99.90
13464;DHT22;6804;48.774;9.174;2023-02-21T05:25:14;6.90;99.90
13464;DHT22;6804;48.774;9.174;2023-02-21T05:27:50;6.90;99.90
13464;DHT22;6804;48.774;9.174;2023-02-21T05:30:20;6.90;99.90
13464;DHT22;6804;48.774;9.174;2023-02-21T05:32:49;6.90;99.90
13464;DHT22;6804;48.774;9.174;2023-02-21T05:35:20;6.90;99.90
13464;DHT22;6804;48.774;9.174;2023-02-21T05:37:48;6.90;99.90
13464;DHT22;6804;48.774;9.174;2023-02-21T05:40:18;6.80;99.90
13464;DHT22;6804;48.774;9.174;2023-02-21T05:42:45;6.80;99.90
13464;DHT22;6804;48.774;9.174;2023-02-21T05:45:13;6.80;99.90
13464;DHT22;6804;48.774;9.174;2023-02-21T05:47:40;6.70;99.90
13464;DHT22;6804;48.774;9.174;2023-02-21T05:50:08;6.60;99.90
13464;DHT22;6804;48.774;9.174;2023-02-21T05:52:38;6.60;99.90
13464;DHT22;6804;48.774;9.174;2023-02-21T05:55:06;6.50;99.90
13464;DHT22;6804;48.774;9.174;2023-02-21T05:57:40;6.60;99.90
13464;DHT22;6804;48.774;9.174;2023-02-21T06:00:14;6.50;99.90
13464;DHT22;6804;48.774;9.174;2023-02-21T06:02:42;6.60;99.90
13464;DHT22;6804;48.774;9.174;2023-02-21T06:05:09;6.70;99.90
13464;DHT22;6804;48.774;9.174;2023-02-21T06:07:38;6.70;99.90
13464;DHT22;6804;48.774;9.174;2023-02-21T06:10:06;6.70;99.90
13464;DHT22;6804;48.774;9.174;2023-02-21T06:12:37;6.80;99.90
13464;DHT22;6804;48.774;9.174;2023-02-21T06:15:09;6.70;99.90
13464;DHT22;6804;48.774;9.174;2023-02-21T06:17:38;6.70;99.90
13464;DHT22;6804;48.774;9.174;2023-02-21T06:20:10;6.70;99.90
13464;DHT22;6804;48.774;9.174;2023-02-21T06:22:43;6.70;99.90
13464;DHT22;6804;48.774;9.174;2023-02-21T06:25:12;6.70;99.90
13464;DHT22;6804;48.774;9.174;2023-02-21T06:27:39;6.70;99.90
13464;DHT22;6804;48.774;9.174;2023-02-21T06:30:10;6.70;99.90
13464;DHT22;6804;48.774;9.174;2023-02-21T06:32:38;6.80;99.90
13464;DHT22;6804;48.774;9.174;2023-02-21T06:35:11;6.80;99.90
13464;DHT22;6804;48.774;9.174;2023-02-21T06:37:39;6.70;99.90
13464;DHT22;6804;48.774;9.174;2023-02-21T06:40:12;6.50;99.90
13464;DHT22;6804;48.774;9.174;2023-02-21T06:42:40;6.30;99.90
13464;DHT22;6804;48.774;9.174;2023-02-21T06:45:11;6.20;99.90
13464;DHT22;6804;48.774;9.174;2023-02-21T06:47:39;6.00;99.90
13464;DHT22;6804;48.774;9.174;2023-02-21T06:50:12;6.00;99.90
13464;DHT22;6804;48.774;9.174;2023-02-21T06:52:42;6.00;99.90
13464;DHT22;6804;48.774;9.174;2023-02-21T06:55:11;6.10;99.90
13464;DHT22;6804;48.774;9.174;2023-02-21T06:57:42;6.30;99.90
13464;DHT22;6804;48.774;9.174;2023-02-21T07:00:11;6.50;99.90
13464;DHT22;6804;48.774;9.174;2023-02-21T07:02:41;6.70;99.90
13464;DHT22;6804;48.774;9.174;2023-02-21T07:05:11;6.80;99.90
13464;DHT22;6804;48.774;9.174;2023-02-21T07:07:41;6.90;99.90
13464;DHT22;6804;48.774;9.174;2023-02-21T07:12:41;7.20;99.90
13464;DHT22;6804;48.774;9.174;2023-02-21T07:15:12;7.30;99.90
13464;DHT22;6804;48.774;9.174;2023-02-21T07:17:41;7.30;99.90
13464;DHT22;6804;48.774;9.174;2023-02-21T07:20:10;7.20;99.90
13464;DHT22;6804;48.774;9.174;2023-02-21T07:22:38;7.30;99.90
13464;DHT22;6804;48.774;9.174;2023-02-21T07:25:06;7.30;99.90
13464;DHT22;6804;48.774;9.174;2023-02-21T07:27:35;7.30;99.90
13464;DHT22;6804;48.774;9.174;2023-02-21T07:30:06;7.30;99.90
13464;DHT22;6804;48.774;9.174;2023-02-21T07:32:34;7.30;99.90
13464;DHT22;6804;48.774;9.174;2023-02-21T07:35:02;7.30;99.90
13464;DHT22;6804;48.774;9.174;2023-02-21T07:37:33;7.40;99.90
13464;DHT22;6804;48.774;9.174;2023-02-21T07:40:04;7.30;99.90
13464;DHT22;6804;48.774;9.174;2023-02-21T07:42:33;7.30;99.90
13464;DHT22;6804;48.774;9.174;2023-02-21T07:45:05;7.30;99.90
13464;DHT22;6804;48.774;9.174;2023-02-21T07:47:32;7.20;99.90
13464;DHT22;6804;48.774;9.174;2023-02-21T07:50:00;7.20;99.90
13464;DHT22;6804;48.774;9.174;2023-02-21T07:52:28;7.30;99.90
13464;DHT22;6804;48.774;9.174;2023-02-21T07:55:03;7.30;99.90
13464;DHT22;6804;48.774;9.174;2023-02-21T07:57:33;7.50;99.90
13464;DHT22;6804;48.774;9.174;2023-02-21T08:00:07;7.80;99.90
13464;DHT22;6804;48.774;9.174;2023-02-21T08:02:34;8.00;99.90
13464;DHT22;6804;48.774;9.174;2023-02-21T08:05:03;8.20;99.90
13464;DHT22;6804;48.774;9.174;2023-02-21T08:07:34;8.30;99.90
13464;DHT22;6804;48.774;9.174;2023-02-21T08:10:05;8.30;99.90
13464;DHT22;6804;48.774;9.174;2023-02-21T08:12:33;8.40;99.90
13464;DHT22;6804;48.774;9.174;2023-02-21T08:15:03;8.60;99.90
13464;DHT22;6804;48.774;9.174;2023-02-21T08:17:36;8.70;99.90
13464;DHT22;6804;48.774;9.174;2023-02-21T08:20:04;8.70;99.90
13464;DHT22;6804;48.774;9.174;2023-02-21T08:22:33;8.90;99.90
13464;DHT22;6804;48.774;9.174;2023-02-21T08:25:03;9.10;99.90
13464;DHT22;6804;48.774;9.174;2023-02-21T08:27:31;9.40;99.90
13464;DHT22;6804;48.774;9.174;2023-02-21T08:30:02;9.70;99.90
13464;DHT22;6804;48.774;9.174;2023-02-21T08:32:35;9.80;99.90
13464;DHT22;6804;48.774;9.174;2023-02-21T08:35:07;9.90;99.90
13464;DHT22;6804;48.774;9.174;2023-02-21T08:37:37;10.00;99.90
13464;DHT22;6804;48.774;9.174;2023-02-21T08:40:13;9.90;99.90
13464;DHT22;6804;48.774;9.174;2023-02-21T08:42:48;9.80;99.90
13464;DHT22;6804;48.774;9.174;2023-02-21T08:45:16;9.90;99.90
13464;DHT22;6804;48.774;9.174;2023-02-21T08:47:45;9.90;99.90
13464;DHT22;6804;48.774;9.174;2023-02-21T08:50:14;10.10;99.90
13464;DHT22;6804;48.774;9.174;2023-02-21T08:52:45;10.20;99.90
13464;DHT22;6804;48.774;9.174;2023-02-21T08:55:21;10.20;99.90
13464;DHT22;6804;48.774;9.174;2023-02-21T08:57:54;10.40;99.90
13464;DHT22;6804;48.774;9.174;2023-02-21T09:00:25;10.60;99.90
13464;DHT22;6804;48.774;9.174;2023-02-21T09:02:56;10.80;99.90
13464;DHT22;6804;48.774;9.174;2023-02-21T09:05:26;11.00;99.90
13464;DHT22;6804;48.774;9.174;2023-02-21T09:07:57;11.10;99.90
13464;DHT22;6804;48.774;9.174;2023-02-21T09:10:31;11.30;99.90
13464;DHT22;6804;48.774;9.174;2023-02-21T09:13:00;11.40;99.90
13464;DHT22;6804;48.774;9.174;2023-02-21T09:15:28;11.50;99.90
13464;DHT22;6804;48.774;9.174;2023-02-21T09:17:58;11.60;99.90
13464;DHT22;6804;48.774;9.174;2023-02-21T09:20:26;11.80;99.90
13464;DHT22;6804;48.774;9.174;2023-02-21T09:22:56;12.00;99.90
13464;DHT22;6804;48.774;9.174;2023-02-21T09:25:24;12.10;99.90
13464;DHT22;6804;48.774;9.174;2023-02-21T09:27:55;12.20;99.90
13464;DHT22;6804;48.774;9.174;2023-02-21T09:30:25;12.20;99.90
13464;DHT22;6804;48.774;9.174;2023-02-21T09:32:58;12.20;99.90
13464;DHT22;6804;48.774;9.174;2023-02-21T09:35:26;12.20;99.90
13464;DHT22;6804;48.774;9.174;2023-02-21T09:37:56;12.30;99.90
13464;DHT22;6804;48.774;9.174;2023-02-21T09:40:33;12.50;99.90
13464;DHT22;6804;48.774;9.174;2023-02-21T09:43:10;12.80;99.90
13464;DHT22;6804;48.774;9.174;2023-02-21T09:45:40;13.20;99.90
13464;DHT22;6804;48.774;9.174;2023-02-21T09:48:12;13.60;99.80
13464;DHT22;6804;48.774;9.174;2023-02-21T09:50:52;13.90;99.30
13464;DHT22;6804;48.774;9.174;2023-02-21T09:53:26;14.20;98.60
13464;DHT22;6804;48.774;9.174;2023-02-21T09:55:59;14.50;98.00
13464;DHT22;6804;48.774;9.174;2023-02-21T09:58:28;14.70;98.20
13464;DHT22;6804;48.774;9.174;2023-02-21T10:00:59;15.00;98.20
13464;DHT22;6804;48.774;9.174;2023-02-21T10:03:41;15.30;97.50
13464;DHT22;6804;48.774;9.174;2023-02-21T10:06:22;15.50;97.10
13464;DHT22;6804;48.774;9.174;2023-02-21T10:09:02;15.70;96.90
13464;DHT22;6804;48.774;9.174;2023-02-21T10:11:44;15.90;96.30
13464;DHT22;6804;48.774;9.174;2023-02-21T10:14:26;15.90;95.90
13464;DHT22;6804;48.774;9.174;2023-02-21T10:17:00;15.90;95.40
13464;DHT22;6804;48.774;9.174;2023-02-21T10:19:38;16.00;95.80
13464;DHT22;6804;48.774;9.174;2023-02-21T10:22:15;16.10;95.80
13464;DHT22;6804;48.774;9.174;2023-02-21T10:24:48;16.20;95.30
13464;DHT22;6804;48.774;9.174;2023-02-21T10:27:18;16.30;95.30
13464;DHT22;6804;48.774;9.174;2023-02-21T10:29:49;16.40;95.30
13464;DHT22;6804;48.774;9.174;2023-02-21T10:32:20;16.50;94.90
13464;DHT22;6804;48.774;9.174;2023-02-21T10:34:52;16.60;94.60
13464;DHT22;6804;48.774;9.174;2023-02-21T10:37:31;16.50;93.80
13464;DHT22;6804;48.774;9.174;2023-02-21T10:40:04;16.40;94.30
13464;DHT22;6804;48.774;9.174;2023-02-21T10:42:38;16.50;94.70
13464;DHT22;6804;48.774;9.174;2023-02-21T10:45:08;16.50;94.20
13464;DHT22;6804;48.774;9.174;2023-02-21T10:47:48;16.50;93.80
13464;DHT22;6804;48.774;9.174;2023-02-21T10:50:40;16.40;94.10
13464;DHT22;6804;48.774;9.174;2023-02-21T10:53:16;16.60;94.50
13464;DHT22;6804;48.774;9.174;2023-02-21T10:56:24;16.60;93.40
13464;DHT22;6804;48.774;9.174;2023-02-21T10:58:59;16.60;93.20
13464;DHT22;6804;48.774;9.174;2023-02-21T11:01:34;16.60;93.60
13464;DHT22;6804;48.774;9.174;2023-02-21T11:04:21;16.60;93.80
13464;DHT22;6804;48.774;9.174;2023-02-21T11:06:53;16.70;94.00
13464;DHT22;6804;48.774;9.174;2023-02-21T11:09:30;16.70;93.80
13464;DHT22;6804;48.774;9.174;2023-02-21T11:12:05;16.80;93.70
13464;DHT22;6804;48.774;9.174;2023-02-21T11:14:35;16.70;93.80
13464;DHT22;6804;48.774;9.174;2023-02-21T11:17:16;16.80;94.40
13464;DHT22;6804;48.774;9.174;2023-02-21T11:19:50;16.80;93.70
13464;DHT22;6804;48.774;9.174;2023-02-21T11:22:23;16.90;93.80
13464;DHT22;6804;48.774;9.174;2023-02-21T11:24:54;16.90;93.90
13464;DHT22;6804;48.774;9.174;2023-02-21T11:27:25;17.00;94.00
13464;DHT22;6804;48.774;9.174;2023-02-21T11:29:55;17.00;93.40
13464;DHT22;6804;48.774;9.174;2023-02-21T11:32:26;17.00;93.80
13464;DHT22;6804;48.774;9.174;2023-02-21T11:35:03;17.10;93.60
13464;DHT22;6804;48.774;9.174;2023-02-21T11:37:36;17.10;93.80
13464;DHT22;6804;48.774;9.174;2023-02-21T11:40:22;17.20;93.90
13464;DHT22;6804;48.774;9.174;2023-02-21T11:42:50;17.30;93.80
13464;DHT22;6804;48.774;9.174;2023-02-21T11:45:23;17.30;93.80
13464;DHT22;6804;48.774;9.174;2023-02-21T11:48:03;17.40;93.10
13464;DHT22;6804;48.774;9.174;2023-02-21T11:50:35;17.30;92.90
13464;DHT22;6804;48.774;9.174;2023-02-21T11:53:17;17.00;93.20
13464;DHT22;6804;48.774;9.174;2023-02-21T11:55:54;16.90;93.70
13464;DHT22;6804;48.774;9.174;2023-02-21T11:58:40;17.00;93.80
13464;DHT22;6804;48.774;9.174;2023-02-21T12:01:13;17.20;93.50
13464;DHT22;6804;48.774;9.174;2023-02-21T12:04:10;17.30;93.40
13464;DHT22;6804;48.774;9.174;2023-02-21T12:06:44;17.50;93.10
13464;DHT22;6804;48.774;9.174;2023-02-21T12:09:26;17.60;93.00
13464;DHT22;6804;48.774;9.174;2023-02-21T12:12:04;17.60;92.50
13464;DHT22;6804;48.774;9.174;2023-02-21T12:14:42;17.80;93.00
13464;DHT22;6804;48.774;9.174;2023-02-21T12:17:36;17.90;92.50
13464;DHT22;6804;48.774;9.174;2023-02-21T12:20:18;18.00;92.40
13464;DHT22;6804;48.774;9.174;2023-02-21T12:23:05;18.10;91.60
13464;DHT22;6804;48.774;9.174;2023-02-21T12:25:47;18.20;92.10
13464;DHT22;6804;48.774;9.174;2023-02-21T12:28:24;18.30;91.70
13464;DHT22;6804;48.774;9.174;2023-02-21T12:31:17;18.40;91.70
13464;DHT22;6804;48.774;9.174;2023-02-21T12:34:04;18.40;91.40
13464;DHT22;6804;48.774;9.174;2023-02-21T12:39:45;18.40;91.00
13464;DHT22;6804;48.774;9.174;2023-02-21T12:42:33;18.40;91.00
13464;DHT22;6804;48.774;9.174;2023-02-21T12:45:21;18.40;90.70
13464;DHT22;6804;48.774;9.174;2023-02-21T12:47:59;17.90;90.30
13464;DHT22;6804;48.774;9.174;2023-02-21T12:50:30;17.60;91.10
13464;DHT22;6804;48.774;9.174;2023-02-21T12:53:08;17.80;91.60
13464;DHT22;6804;48.774;9.174;2023-02-21T12:55:44;17.90;91.40
13464;DHT22;6804;48.774;9.174;2023-02-21T12:58:22;18.10;91.30
13464;DHT22;6804;48.774;9.174;2023-02-21T13:00:57;18.30;91.20
13464;DHT22;6804;48.774;9.174;2023-02-21T13:03:42;18.30;90.10
13464;DHT22;6804;48.774;9.174;2023-02-21T13:06:17;18.30;90.30
13464;DHT22;6804;48.774;9.174;2023-02-21T13:08:59;18.40;90.60
13464;DHT22;6804;48.774;9.174;2023-02-21T13:11:38;18.50;90.30
13464;DHT22;6804;48.774;9.174;2023-02-21T13:14:16;18.60;90.20
13464;DHT22;6804;48.774;9.174;2023-02-21T13:16:44;18.70;89.90
13464;DHT22;6804;48.774;9.174;2023-02-21T13:19:13;18.70;89.30
13464;DHT22;6804;48.774;9.174;2023-02-21T13:22:01;18.80;89.60
13464;DHT22;6804;48.774;9.174;2023-02-21T13:24:53;18.80;89.30
13464;DHT22;6804;48.774;9.174;2023-02-21T13:27:38;18.90;89.20
13464;DHT22;6804;48.774;9.174;2023-02-21T13:30:22;19.00;88.60
13464;DHT22;6804;48.774;9.174;2023-02-21T13:32:53;19.10;89.40
13464;DHT22;6804;48.774;9.174;2023-02-21T13:35:33;19.10;88.20
13464;DHT22;6804;48.774;9.174;2023-02-21T13:38:05;19.10;87.00
13464;DHT22;6804;48.774;9.174;2023-02-21T13:40:47;19.20;87.00
13464;DHT22;6804;48.774;9.174;2023-02-21T13:43:21;19.10;87.20
13464;DHT22;6804;48.774;9.174;2023-02-21T13:46:23;19.10;86.80
13464;DHT22;6804;48.774;9.174;2023-02-21T13:52:27;19.00;86.80
13464;DHT22;6804;48.774;9.174;2023-02-21T13:55:25;18.70;87.20
13464;DHT22;6804;48.774;9.174;2023-02-21T13:58:29;18.50;86.00
13464;DHT22;6804;48.774;9.174;2023-02-21T14:07:06;18.10;89.10
13464;DHT22;6804;48.774;9.174;2023-02-21T14:09:35;18.40;88.80
13464;DHT22;6804;48.774;9.174;2023-02-21T14:12:05;18.60;88.70
13464;DHT22;6804;48.774;9.174;2023-02-21T14:14:37;18.80;88.40
13464;DHT22;6804;48.774;9.174;2023-02-21T14:17:10;18.90;87.20
13464;DHT22;6804;48.774;9.174;2023-02-21T14:19:42;18.90;86.50
13464;DHT22;6804;48.774;9.174;2023-02-21T14:22:17;18.90;86.10
13464;DHT22;6804;48.774;9.174;2023-02-21T14:25:04;19.00;86.30
13464;DHT22;6804;48.774;9.174;2023-02-21T14:27:36;19.00;84.60
13464;DHT22;6804;48.774;9.174;2023-02-21T14:30:29;18.80;84.90
13464;DHT22;6804;48.774;9.174;2023-02-21T14:33:29;18.80;85.80
13464;DHT22;6804;48.774;9.174;2023-02-21T14:36:01;18.80;86.20
13464;DHT22;6804;48.774;9.174;2023-02-21T14:38:39;18.80;85.90
13464;DHT22;6804;48.774;9.174;2023-02-21T14:41:23;18.80;85.40
13464;DHT22;6804;48.774;9.174;2023-02-21T14:44:10;18.50;85.20
13464;DHT22;6804;48.774;9.174;2023-02-21T14:46:52;18.50;86.90
13464;DHT22;6804;48.774;9.174;2023-02-21T14:50:02;18.50;86.30
13464;DHT22;6804;48.774;9.174;2023-02-21T14:52:50;18.60;86.70
13464;DHT22;6804;48.774;9.174;2023-02-21T14:55:50;18.60;86.90
13464;DHT22;6804;48.774;9.174;2023-02-21T14:58:43;18.60;86.60
13464;DHT22;6804;48.774;9.174;2023-02-21T15:01:36;18.60;86.50
13464;DHT22;6804;48.774;9.174;2023-02-21T15:04:16;18.60;86.60
13464;DHT22;6804;48.774;9.174;2023-02-21T15:06:58;18.60;85.20
13464;DHT22;6804;48.774;9.174;2023-02-21T15:09:28;18.50;86.00
13464;DHT22;6804;48.774;9.174;2023-02-21T15:11:56;18.40;85.40
13464;DHT22;6804;48.774;9.174;2023-02-21T15:14:28;18.30;85.60
13464;DHT22;6804;48.774;9.174;2023-02-21T15:17:00;18.00;86.00
13464;DHT22;6804;48.774;9.174;2023-02-21T15:19:33;18.00;86.70
13464;DHT22;6804;48.774;9.174;2023-02-21T15:22:15;17.90;86.60
13464;DHT22;6804;48.774;9.174;2023-02-21T15:24:57;17.90;86.40
13464;DHT22;6804;48.774;9.174;2023-02-21T15:27:26;17.90;86.70
13464;DHT22;6804;48.774;9.174;2023-02-21T15:30:07;17.90;87.00
13464;DHT22;6804;48.774;9.174;2023-02-21T15:32:38;17.90;87.40
13464;DHT22;6804;48.774;9.174;2023-02-21T15:35:22;17.80;88.00
13464;DHT22;6804;48.774;9.174;2023-02-21T15:37:55;17.80;88.70
13464;DHT22;6804;48.774;9.174;2023-02-21T15:40:25;17.70;88.50
13464;DHT22;6804;48.774;9.174;2023-02-21T15:42:55;17.50;88.80
13464;DHT22;6804;48.774;9.174;2023-02-21T15:45:25;17.40;89.80
13464;DHT22;6804;48.774;9.174;2023-02-21T15:47:54;17.30;90.20
13464;DHT22;6804;48.774;9.174;2023-02-21T15:50:29;17.30;90.30
13464;DHT22;6804;48.774;9.174;2023-02-21T15:53:15;17.30;90.50
13464;DHT22;6804;48.774;9.174;2023-02-21T15:55:50;17.30;90.70
13464;DHT22;6804;48.774;9.174;2023-02-21T15:58:22;17.30;90.90
13464;DHT22;6804;48.774;9.174;2023-02-21T16:01:04;17.30;91.00
13464;DHT22;6804;48.774;9.174;2023-02-21T16:03:38;17.20;91.20
13464;DHT22;6804;48.774;9.174;2023-02-21T16:06:23;17.20;91.40
13464;DHT22;6804;48.774;9.174;2023-02-21T16:09:01;17.10;91.40
13464;DHT22;6804;48.774;9.174;2023-02-21T16:11:42;17.10;91.60
13464;DHT22;6804;48.774;9.174;2023-02-21T16:14:24;17.00;91.80
13464;DHT22;6804;48.774;9.174;2023-02-21T16:17:15;17.00;91.80
13464;DHT22;6804;48.774;9.174;2023-02-21T16:19:48;16.90;92.00
13464;DHT22;6804;48.774;9.174;2023-02-21T16:22:40;16.80;92.00
13464;DHT22;6804;48.774;9.174;2023-02-21T16:25:16;16.70;92.30
13464;DHT22;6804;48.774;9.174;2023-02-21T16:27:49;16.70;92.50
13464;DHT22;6804;48.774;9.174;2023-02-21T16:30:22;16.60;92.80
13464;DHT22;6804;48.774;9.174;2023-02-21T16:32:52;16.50;92.90
13464;DHT22;6804;48.774;9.174;2023-02-21T16:35:21;16.50;93.10
13464;DHT22;6804;48.774;9.174;2023-02-21T16:37:51;16.40;93.10
13464;DHT22;6804;48.774;9.174;2023-02-21T16:40:23;16.30;93.20
13464;DHT22;6804;48.774;9.174;2023-02-21T16:42:52;16.30;93.50
13464;DHT22;6804;48.774;9.174;2023-02-21T16:45:20;16.20;93.60
13464;DHT22;6804;48.774;9.174;2023-02-21T16:47:55;16.20;93.70
13464;DHT22;6804;48.774;9.174;2023-02-21T16:50:28;16.10;93.80
13464;DHT22;6804;48.774;9.174;2023-02-21T16:52:58;16.10;93.90
13464;DHT22;6804;48.774;9.174;2023-02-21T16:55:29;16.10;94.00
13464;DHT22;6804;48.774;9.174;2023-02-21T16:57:59;16.00;94.10
13464;DHT22;6804;48.774;9.174;2023-02-21T17:00:30;15.90;94.20
13464;DHT22;6804;48.774;9.174;2023-02-21T17:03:01;15.80;94.40
13464;DHT22;6804;48.774;9.174;2023-02-21T17:05:28;15.70;94.60
13464;DHT22;6804;48.774;9.174;2023-02-21T17:07:59;15.60;94.80
13464;DHT22;6804;48.774;9.174;2023-02-21T17:10:28;15.50;95.00
13464;DHT22;6804;48.774;9.174;2023-02-21T17:12:57;15.50;95.10